sensor_id;sensor_type;location;lat;lon;timestamp;temperature;humidity
2539;DHT22;1280;49.760;9.664;2024-01-30T00:00:29;2.80;78.80
2539;DHT22;1280;49.760;9.664;2024-01-30T00:02:58;2.80;78.80
2539;DHT22;1280;49.760;9.664;2024-01-30T00:05:26;2.70;78.80
2539;DHT22;1280;49.760;9.664;2024-01-30T00:07:54;2.80;79.00
2539;DHT22;1280;49.760;9.664;2024-01-30T00:10:22;2.80;79.00
2539;DHT22;1280;49.760;9.664;2024-01-30T00:12:50;2.70;78.90
2539;DHT22;1280;49.760;9.664;2024-01-30T00:15:20;2.70;78.90
2539;DHT22;1280;49.760;9.664;2024-01-30T00:17:49;2.70;79.00
2539;DHT22;1280;49.760;9.664;2024-01-30T00:20:19;2.70;78.90
2539;DHT22;1280;49.760;9.664;2024-01-30T00:22:47;2.70;79.00
2539;DHT22;1280;49.760;9.664;2024-01-30T00:25:15;2.70;79.10
2539;DHT22;1280;49.760;9.664;2024-01-30T00:27:43;2.70;79.20
2539;DHT22;1280;49.760;9.664;2024-01-30T00:30:13;2.70;79.10
2539;DHT22;1280;49.760;9.664;2024-01-30T00:32:43;2.70;79.00
2539;DHT22;1280;49.760;9.664;2024-01-30T00:35:10;2.80;79.20
2539;DHT22;1280;49.760;9.664;2024-01-30T00:37:38;2.80;79.30
2539;DHT22;1280;49.760;9.664;2024-01-30T00:40:07;2.80;79.30
2539;DHT22;1280;49.760;9.664;2024-01-30T00:42:37;2.80;79.20
2539;DHT22;1280;49.760;9.664;2024-01-30T00:45:05;2.80;79.00
2539;DHT22;1280;49.760;9.664;2024-01-30T00:47:33;2.80;78.80
2539;DHT22;1280;49.760;9.664;2024-01-30T00:50:03;2.80;78.90
2539;DHT22;1280;49.760;9.664;2024-01-30T00:52:31;2.80;79.00
2539;DHT22;1280;49.760;9.664;2024-01-30T00:55:00;2.70;79.00
2539;DHT22;1280;49.760;9.664;2024-01-30T00:57:28;2.70;79.10
2539;DHT22;1280;49.760;9.664;2024-01-30T00:59:56;2.70;79.10
2539;DHT22;1280;49.760;9.664;2024-01-30T01:02:24;2.80;79.10
2539;DHT22;1280;49.760;9.664;2024-01-30T01:04:52;2.80;79.20
2539;DHT22;1280;49.760;9.664;2024-01-30T01:07:20;2.80;79.20
2539;DHT22;1280;49.760;9.664;2024-01-30T01:09:48;2.80;79.20
2539;DHT22;1280;49.760;9.664;2024-01-30T01:12:16;2.80;79.20
2539;DHT22;1280;49.760;9.664;2024-01-30T01:14:45;2.80;79.30
2539;DHT22;1280;49.760;9.664;2024-01-30T01:17:13;2.90;79.30
2539;DHT22;1280;49.760;9.664;2024-01-30T01:19:42;2.90;79.20
2539;DHT22;1280;49.760;9.664;2024-01-30T01:22:10;2.90;79.20
2539;DHT22;1280;49.760;9.664;2024-01-30T01:24:39;2.90;79.20
2539;DHT22;1280;49.760;9.664;2024-01-30T01:27:07;2.90;79.20
2539;DHT22;1280;49.760;9.664;2024-01-30T01:29:35;2.90;79.20
2539;DHT22;1280;49.760;9.664;2024-01-30T01:32:03;2.90;79.10
2539;DHT22;1280;49.760;9.664;2024-01-30T01:34:32;2.90;79.10
2539;DHT22;1280;49.760;9.664;2024-01-30T01:37:00;2.90;79.00
2539;DHT22;1280;49.760;9.664;2024-01-30T01:39:28;2.90;79.00
2539;DHT22;1280;49.760;9.664;2024-01-30T01:41:58;2.80;79.00
2539;DHT22;1280;49.760;9.664;2024-01-30T01:44:26;2.80;78.90
2539;DHT22;1280;49.760;9.664;2024-01-30T01:46:55;2.80;79.00
2539;DHT22;1280;49.760;9.664;2024-01-30T01:49:25;2.80;79.10
2539;DHT22;1280;49.760;9.664;2024-01-30T01:51:55;2.80;79.00
2539;DHT22;1280;49.760;9.664;2024-01-30T01:54:25;2.80;79.00
2539;DHT22;1280;49.760;9.664;2024-01-30T01:56:54;2.80;79.00
2539;DHT22;1280;49.760;9.664;2024-01-30T01:59:24;2.80;79.00
2539;DHT22;1280;49.760;9.664;2024-01-30T02:01:54;2.80;79.00
2539;DHT22;1280;49.760;9.664;2024-01-30T02:04:23;2.80;79.00
2539;DHT22;1280;49.760;9.664;2024-01-30T02:06:51;2.80;79.00
2539;DHT22;1280;49.760;9.664;2024-01-30T02:09:20;2.80;79.00
2539;DHT22;1280;49.760;9.664;2024-01-30T02:11:49;2.80;79.00
2539;DHT22;1280;49.760;9.664;2024-01-30T02:14:17;2.80;79.00
2539;DHT22;1280;49.760;9.664;2024-01-30T02:16:46;2.80;79.10
2539;DHT22;1280;49.760;9.664;2024-01-30T02:19:14;2.80;79.00
2539;DHT22;1280;49.760;9.664;2024-01-30T02:21:44;2.80;78.80
2539;DHT22;1280;49.760;9.664;2024-01-30T02:24:13;2.80;78.70
2539;DHT22;1280;49.760;9.664;2024-01-30T02:26:41;2.70;78.70
2539;DHT22;1280;49.760;9.664;2024-01-30T02:29:08;2.70;78.70
2539;DHT22;1280;49.760;9.664;2024-01-30T02:31:36;2.70;78.80
2539;DHT22;1280;49.760;9.664;2024-01-30T02:34:04;2.70;78.90
2539;DHT22;1280;49.760;9.664;2024-01-30T02:36:33;2.70;78.90
2539;DHT22;1280;49.760;9.664;2024-01-30T02:39:03;2.70;78.80
2539;DHT22;1280;49.760;9.664;2024-01-30T02:41:32;2.70;78.90
2539;DHT22;1280;49.760;9.664;2024-01-30T02:44:00;2.70;78.90
2539;DHT22;1280;49.760;9.664;2024-01-30T02:46:28;2.70;78.90
2539;DHT22;1280;49.760;9.664;2024-01-30T02:48:56;2.70;78.80
2539;DHT22;1280;49.760;9.664;2024-01-30T02:51:24;2.70;78.80
2539;DHT22;1280;49.760;9.664;2024-01-30T02:53:52;2.70;78.90
2539;DHT22;1280;49.760;9.664;2024-01-30T02:56:22;2.70;78.80
2539;DHT22;1280;49.760;9.664;2024-01-30T02:58:50;2.70;78.70
2539;DHT22;1280;49.760;9.664;2024-01-30T03:01:18;2.70;78.80
2539;DHT22;1280;49.760;9.664;2024-01-30T03:03:46;2.70;78.90
2539;DHT22;1280;49.760;9.664;2024-01-30T03:06:15;2.70;78.90
2539;DHT22;1280;49.760;9.664;2024-01-30T03:08:47;2.70;78.90
2539;DHT22;1280;49.760;9.664;2024-01-30T03:11:15;2.70;78.70
2539;DHT22;1280;49.760;9.664;2024-01-30T03:13:44;2.60;78.60
2539;DHT22;1280;49.760;9.664;2024-01-30T03:16:12;2.60;78.60
2539;DHT22;1280;49.760;9.664;2024-01-30T03:18:40;2.60;78.60
2539;DHT22;1280;49.760;9.664;2024-01-30T03:21:08;2.50;78.50
2539;DHT22;1280;49.760;9.664;2024-01-30T03:23:36;2.50;78.60
2539;DHT22;1280;49.760;9.664;2024-01-30T03:26:04;2.50;78.60
2539;DHT22;1280;49.760;9.664;2024-01-30T03:28:34;2.50;78.70
2539;DHT22;1280;49.760;9.664;2024-01-30T03:31:04;2.50;79.00
2539;DHT22;1280;49.760;9.664;2024-01-30T03:33:32;2.50;78.80
2539;DHT22;1280;49.760;9.664;2024-01-30T03:36:03;2.50;78.80
2539;DHT22;1280;49.760;9.664;2024-01-30T03:38:31;2.50;78.80
2539;DHT22;1280;49.760;9.664;2024-01-30T03:41:00;2.50;78.70
2539;DHT22;1280;49.760;9.664;2024-01-30T03:43:28;2.50;79.00
2539;DHT22;1280;49.760;9.664;2024-01-30T03:45:56;2.50;79.00
2539;DHT22;1280;49.760;9.664;2024-01-30T03:48:25;2.50;79.00
2539;DHT22;1280;49.760;9.664;2024-01-30T03:50:53;2.50;79.00
2539;DHT22;1280;49.760;9.664;2024-01-30T03:53:21;2.50;79.00
2539;DHT22;1280;49.760;9.664;2024-01-30T03:55:50;2.50;79.00
2539;DHT22;1280;49.760;9.664;2024-01-30T03:58:18;2.50;79.00
2539;DHT22;1280;49.760;9.664;2024-01-30T04:00:46;2.50;78.80
2539;DHT22;1280;49.760;9.664;2024-01-30T04:03:14;2.50;78.80
2539;DHT22;1280;49.760;9.664;2024-01-30T04:05:44;2.50;78.70
2539;DHT22;1280;49.760;9.664;2024-01-30T04:08:12;2.50;78.60
2539;DHT22;1280;49.760;9.664;2024-01-30T04:10:40;2.40;78.50
2539;DHT22;1280;49.760;9.664;2024-01-30T04:13:08;2.40;78.60
2539;DHT22;1280;49.760;9.664;2024-01-30T04:15:39;2.40;78.60
2539;DHT22;1280;49.760;9.664;2024-01-30T04:18:07;2.30;78.70
2539;DHT22;1280;49.760;9.664;2024-01-30T04:20:35;2.30;78.60
2539;DHT22;1280;49.760;9.664;2024-01-30T04:23:05;2.30;78.60
2539;DHT22;1280;49.760;9.664;2024-01-30T04:25:33;2.20;78.70
2539;DHT22;1280;49.760;9.664;2024-01-30T04:28:01;2.20;78.60
2539;DHT22;1280;49.760;9.664;2024-01-30T04:30:29;2.20;78.70
2539;DHT22;1280;49.760;9.664;2024-01-30T04:32:57;2.20;78.60
2539;DHT22;1280;49.760;9.664;2024-01-30T04:35:25;2.20;78.70
2539;DHT22;1280;49.760;9.664;2024-01-30T04:37:53;2.10;78.70
2539;DHT22;1280;49.760;9.664;2024-01-30T04:40:22;2.10;78.70
2539;DHT22;1280;49.760;9.664;2024-01-30T04:42:51;2.10;78.70
2539;DHT22;1280;49.760;9.664;2024-01-30T04:45:19;2.10;78.80
2539;DHT22;1280;49.760;9.664;2024-01-30T04:47:47;2.10;78.70
2539;DHT22;1280;49.760;9.664;2024-01-30T04:50:15;2.10;78.70
2539;DHT22;1280;49.760;9.664;2024-01-30T04:52:43;2.10;78.80
2539;DHT22;1280;49.760;9.664;2024-01-30T04:55:11;2.10;78.90
2539;DHT22;1280;49.760;9.664;2024-01-30T04:57:40;2.10;78.80
2539;DHT22;1280;49.760;9.664;2024-01-30T05:00:09;2.10;79.00
2539;DHT22;1280;49.760;9.664;2024-01-30T05:02:37;2.10;78.90
2539;DHT22;1280;49.760;9.664;2024-01-30T05:05:07;2.10;78.90
2539;DHT22;1280;49.760;9.664;2024-01-30T05:07:36;2.10;78.90
2539;DHT22;1280;49.760;9.664;2024-01-30T05:10:05;2.10;78.90
2539;DHT22;1280;49.760;9.664;2024-01-30T05:12:33;2.10;78.90
2539;DHT22;1280;49.760;9.664;2024-01-30T05:15:03;2.10;79.00
2539;DHT22;1280;49.760;9.664;2024-01-30T05:17:31;2.10;79.00
2539;DHT22;1280;49.760;9.664;2024-01-30T05:20:00;2.10;79.10
2539;DHT22;1280;49.760;9.664;2024-01-30T05:22:28;2.10;79.10
2539;DHT22;1280;49.760;9.664;2024-01-30T05:24:56;2.20;79.10
2539;DHT22;1280;49.760;9.664;2024-01-30T05:27:25;2.20;79.10
2539;DHT22;1280;49.760;9.664;2024-01-30T05:29:54;2.20;79.20
2539;DHT22;1280;49.760;9.664;2024-01-30T05:32:23;2.20;79.00
2539;DHT22;1280;49.760;9.664;2024-01-30T05:34:51;2.20;79.00
2539;DHT22;1280;49.760;9.664;2024-01-30T05:37:19;2.30;79.10
2539;DHT22;1280;49.760;9.664;2024-01-30T05:39:48;2.30;79.00
2539;DHT22;1280;49.760;9.664;2024-01-30T05:42:16;2.30;79.00
2539;DHT22;1280;49.760;9.664;2024-01-30T05:44:44;2.30;78.90
2539;DHT22;1280;49.760;9.664;2024-01-30T05:47:12;2.30;78.90
2539;DHT22;1280;49.760;9.664;2024-01-30T05:49:41;2.30;78.90
2539;DHT22;1280;49.760;9.664;2024-01-30T05:52:09;2.30;78.80
2539;DHT22;1280;49.760;9.664;2024-01-30T05:54:37;2.20;78.60
2539;DHT22;1280;49.760;9.664;2024-01-30T05:57:05;2.20;78.60
2539;DHT22;1280;49.760;9.664;2024-01-30T05:59:34;2.10;78.60
2539;DHT22;1280;49.760;9.664;2024-01-30T06:02:07;2.10;78.50
2539;DHT22;1280;49.760;9.664;2024-01-30T06:04:35;2.10;78.60
2539;DHT22;1280;49.760;9.664;2024-01-30T06:07:05;2.00;78.70
2539;DHT22;1280;49.760;9.664;2024-01-30T06:09:33;2.00;78.70
2539;DHT22;1280;49.760;9.664;2024-01-30T06:12:03;2.00;78.70
2539;DHT22;1280;49.760;9.664;2024-01-30T06:14:32;2.00;78.70
2539;DHT22;1280;49.760;9.664;2024-01-30T06:17:00;2.00;78.70
2539;DHT22;1280;49.760;9.664;2024-01-30T06:19:28;2.00;78.70
2539;DHT22;1280;49.760;9.664;2024-01-30T06:21:56;2.00;78.60
2539;DHT22;1280;49.760;9.664;2024-01-30T06:24:26;2.00;78.60
2539;DHT22;1280;49.760;9.664;2024-01-30T06:26:54;1.90;78.60
2539;DHT22;1280;49.760;9.664;2024-01-30T06:29:22;2.00;78.70
2539;DHT22;1280;49.760;9.664;2024-01-30T06:31:51;2.00;78.90
2539;DHT22;1280;49.760;9.664;2024-01-30T06:34:19;2.00;78.70
2539;DHT22;1280;49.760;9.664;2024-01-30T06:36:47;2.00;78.70
2539;DHT22;1280;49.760;9.664;2024-01-30T06:39:15;2.00;78.90
2539;DHT22;1280;49.760;9.664;2024-01-30T06:41:46;2.00;78.80
2539;DHT22;1280;49.760;9.664;2024-01-30T06:44:14;2.00;78.80
2539;DHT22;1280;49.760;9.664;2024-01-30T06:46:42;2.10;78.80
2539;DHT22;1280;49.760;9.664;2024-01-30T06:49:10;2.10;78.80
2539;DHT22;1280;49.760;9.664;2024-01-30T06:51:38;2.10;78.80
2539;DHT22;1280;49.760;9.664;2024-01-30T06:54:06;2.10;78.70
2539;DHT22;1280;49.760;9.664;2024-01-30T06:56:34;2.10;78.70
2539;DHT22;1280;49.760;9.664;2024-01-30T06:59:03;2.10;78.70
2539;DHT22;1280;49.760;9.664;2024-01-30T07:01:32;2.10;78.70
2539;DHT22;1280;49.760;9.664;2024-01-30T07:04:00;2.10;78.70
2539;DHT22;1280;49.760;9.664;2024-01-30T07:06:28;2.10;78.70
2539;DHT22;1280;49.760;9.664;2024-01-30T07:08:56;2.10;78.60
2539;DHT22;1280;49.760;9.664;2024-01-30T07:11:24;2.00;78.60
2539;DHT22;1280;49.760;9.664;2024-01-30T07:13:54;2.00;78.50
2539;DHT22;1280;49.760;9.664;2024-01-30T07:16:23;2.00;78.50
2539;DHT22;1280;49.760;9.664;2024-01-30T07:18:51;1.90;78.50
2539;DHT22;1280;49.760;9.664;2024-01-30T07:21:19;1.90;78.50
2539;DHT22;1280;49.760;9.664;2024-01-30T07:23:49;1.90;78.50
2539;DHT22;1280;49.760;9.664;2024-01-30T07:26:17;1.80;78.50
2539;DHT22;1280;49.760;9.664;2024-01-30T07:28:45;1.80;78.50
2539;DHT22;1280;49.760;9.664;2024-01-30T07:31:13;1.80;78.60
2539;DHT22;1280;49.760;9.664;2024-01-30T07:33:43;1.80;78.70
2539;DHT22;1280;49.760;9.664;2024-01-30T07:36:11;1.80;78.90
2539;DHT22;1280;49.760;9.664;2024-01-30T07:38:39;1.90;79.00
2539;DHT22;1280;49.760;9.664;2024-01-30T07:41:07;1.90;79.00
2539;DHT22;1280;49.760;9.664;2024-01-30T07:43:35;1.90;79.10
2539;DHT22;1280;49.760;9.664;2024-01-30T07:46:03;2.00;79.10
2539;DHT22;1280;49.760;9.664;2024-01-30T07:48:33;2.10;79.10
2539;DHT22;1280;49.760;9.664;2024-01-30T07:51:03;2.10;79.00
2539;DHT22;1280;49.760;9.664;2024-01-30T07:53:31;2.10;78.90
2539;DHT22;1280;49.760;9.664;2024-01-30T07:55:58;2.10;78.90
2539;DHT22;1280;49.760;9.664;2024-01-30T07:58:26;2.10;79.00
2539;DHT22;1280;49.760;9.664;2024-01-30T08:00:55;2.20;79.10
2539;DHT22;1280;49.760;9.664;2024-01-30T08:03:25;2.20;79.10
2539;DHT22;1280;49.760;9.664;2024-01-30T08:05:53;2.20;79.00
2539;DHT22;1280;49.760;9.664;2024-01-30T08:08:23;2.30;79.10
2539;DHT22;1280;49.760;9.664;2024-01-30T08:10:52;2.30;79.10
2539;DHT22;1280;49.760;9.664;2024-01-30T08:13:21;2.30;79.20
2539;DHT22;1280;49.760;9.664;2024-01-30T08:15:49;2.40;79.20
2539;DHT22;1280;49.760;9.664;2024-01-30T08:18:18;2.40;79.20
2539;DHT22;1280;49.760;9.664;2024-01-30T08:20:46;2.40;79.30
2539;DHT22;1280;49.760;9.664;2024-01-30T08:23:15;2.50;79.30
2539;DHT22;1280;49.760;9.664;2024-01-30T08:25:45;2.50;79.20
2539;DHT22;1280;49.760;9.664;2024-01-30T08:28:13;2.50;79.20
2539;DHT22;1280;49.760;9.664;2024-01-30T08:30:43;2.60;79.30
2539;DHT22;1280;49.760;9.664;2024-01-30T08:33:11;2.60;79.30
2539;DHT22;1280;49.760;9.664;2024-01-30T08:35:41;2.60;79.30
2539;DHT22;1280;49.760;9.664;2024-01-30T08:38:09;2.70;79.20
2539;DHT22;1280;49.760;9.664;2024-01-30T08:40:39;2.70;79.20
2539;DHT22;1280;49.760;9.664;2024-01-30T08:43:08;2.70;79.30
2539;DHT22;1280;49.760;9.664;2024-01-30T08:45:39;2.70;79.30
2539;DHT22;1280;49.760;9.664;2024-01-30T08:48:07;2.80;79.30
2539;DHT22;1280;49.760;9.664;2024-01-30T08:50:36;2.80;79.30
2539;DHT22;1280;49.760;9.664;2024-01-30T08:53:04;2.80;79.40
2539;DHT22;1280;49.760;9.664;2024-01-30T08:55:32;2.90;79.40
2539;DHT22;1280;49.760;9.664;2024-01-30T08:58:00;2.90;79.40
2539;DHT22;1280;49.760;9.664;2024-01-30T09:00:32;2.90;79.40
2539;DHT22;1280;49.760;9.664;2024-01-30T09:03:00;3.00;79.40
2539;DHT22;1280;49.760;9.664;2024-01-30T09:05:28;3.00;79.40
2539;DHT22;1280;49.760;9.664;2024-01-30T09:07:57;3.00;79.50
2539;DHT22;1280;49.760;9.664;2024-01-30T09:10:27;3.10;79.50
2539;DHT22;1280;49.760;9.664;2024-01-30T09:12:55;3.10;79.50
2539;DHT22;1280;49.760;9.664;2024-01-30T09:15:23;3.10;79.60
2539;DHT22;1280;49.760;9.664;2024-01-30T09:17:55;3.20;79.60
2539;DHT22;1280;49.760;9.664;2024-01-30T09:20:23;3.20;79.60
2539;DHT22;1280;49.760;9.664;2024-01-30T09:22:52;3.20;79.70
2539;DHT22;1280;49.760;9.664;2024-01-30T09:25:20;3.20;79.70
2539;DHT22;1280;49.760;9.664;2024-01-30T09:27:48;3.30;79.70
2539;DHT22;1280;49.760;9.664;2024-01-30T09:30:16;3.30;79.60
2539;DHT22;1280;49.760;9.664;2024-01-30T09:32:45;3.30;79.70
2539;DHT22;1280;49.760;9.664;2024-01-30T09:35:20;3.40;79.80
2539;DHT22;1280;49.760;9.664;2024-01-30T09:37:49;3.40;79.80
2539;DHT22;1280;49.760;9.664;2024-01-30T09:40:19;3.50;79.80
2539;DHT22;1280;49.760;9.664;2024-01-30T09:42:51;3.50;79.80
2539;DHT22;1280;49.760;9.664;2024-01-30T09:45:24;3.50;79.90
2539;DHT22;1280;49.760;9.664;2024-01-30T09:48:02;3.60;79.90
2539;DHT22;1280;49.760;9.664;2024-01-30T09:50:39;3.60;79.90
2539;DHT22;1280;49.760;9.664;2024-01-30T09:53:08;3.60;80.00
2539;DHT22;1280;49.760;9.664;2024-01-30T09:55:37;3.70;80.00
2539;DHT22;1280;49.760;9.664;2024-01-30T09:58:13;3.70;80.00
2539;DHT22;1280;49.760;9.664;2024-01-30T10:00:42;3.70;80.10
2539;DHT22;1280;49.760;9.664;2024-01-30T10:03:12;3.70;80.10
2539;DHT22;1280;49.760;9.664;2024-01-30T10:06:12;3.80;80.10
2539;DHT22;1280;49.760;9.664;2024-01-30T10:08:54;3.80;80.20
2539;DHT22;1280;49.760;9.664;2024-01-30T10:11:23;3.80;80.20
2539;DHT22;1280;49.760;9.664;2024-01-30T10:14:04;3.90;80.20
2539;DHT22;1280;49.760;9.664;2024-01-30T10:16:36;3.90;80.20
2539;DHT22;1280;49.760;9.664;2024-01-30T10:19:08;3.90;80.30
2539;DHT22;1280;49.760;9.664;2024-01-30T10:21:42;3.90;80.30
2539;DHT22;1280;49.760;9.664;2024-01-30T10:24:11;4.00;80.30
2539;DHT22;1280;49.760;9.664;2024-01-30T10:26:44;4.00;80.30
2539;DHT22;1280;49.760;9.664;2024-01-30T10:29:16;4.00;80.30
2539;DHT22;1280;49.760;9.664;2024-01-30T10:31:57;4.00;80.30
2539;DHT22;1280;49.760;9.664;2024-01-30T10:34:26;4.10;80.40
2539;DHT22;1280;49.760;9.664;2024-01-30T10:37:07;4.10;80.40
2539;DHT22;1280;49.760;9.664;2024-01-30T10:39:44;4.10;80.50
2539;DHT22;1280;49.760;9.664;2024-01-30T10:42:19;4.10;80.40
2539;DHT22;1280;49.760;9.664;2024-01-30T10:44:58;4.10;80.50
2539;DHT22;1280;49.760;9.664;2024-01-30T10:47:34;4.20;80.50
2539;DHT22;1280;49.760;9.664;2024-01-30T10:50:15;4.20;80.50
2539;DHT22;1280;49.760;9.664;2024-01-30T10:52:45;4.20;80.60
2539;DHT22;1280;49.760;9.664;2024-01-30T10:55:16;4.30;80.50
2539;DHT22;1280;49.760;9.664;2024-01-30T10:57:51;4.30;80.50
2539;DHT22;1280;49.760;9.664;2024-01-30T11:00:22;4.30;80.60
2539;DHT22;1280;49.760;9.664;2024-01-30T11:02:51;4.30;80.60
2539;DHT22;1280;49.760;9.664;2024-01-30T11:05:27;4.40;80.60
2539;DHT22;1280;49.760;9.664;2024-01-30T11:08:10;4.40;80.70
2539;DHT22;1280;49.760;9.664;2024-01-30T11:10:45;4.40;80.70
2539;DHT22;1280;49.760;9.664;2024-01-30T11:13:14;4.50;80.80
2539;DHT22;1280;49.760;9.664;2024-01-30T11:15:42;4.50;80.80
2539;DHT22;1280;49.760;9.664;2024-01-30T11:18:10;4.50;80.80
2539;DHT22;1280;49.760;9.664;2024-01-30T11:20:38;4.50;80.80
2539;DHT22;1280;49.760;9.664;2024-01-30T11:23:14;4.60;80.80
2539;DHT22;1280;49.760;9.664;2024-01-30T11:25:43;4.60;80.80
2539;DHT22;1280;49.760;9.664;2024-01-30T11:28:14;4.60;80.90
2539;DHT22;1280;49.760;9.664;2024-01-30T11:30:43;4.70;80.90
2539;DHT22;1280;49.760;9.664;2024-01-30T11:33:13;4.70;80.90
2539;DHT22;1280;49.760;9.664;2024-01-30T11:35:43;4.70;80.90
2539;DHT22;1280;49.760;9.664;2024-01-30T11:38:14;4.80;81.00
2539;DHT22;1280;49.760;9.664;2024-01-30T11:40:43;4.80;81.10
2539;DHT22;1280;49.760;9.664;2024-01-30T11:43:12;4.80;81.10
2539;DHT22;1280;49.760;9.664;2024-01-30T11:45:40;4.90;81.10
2539;DHT22;1280;49.760;9.664;2024-01-30T11:48:08;4.90;81.10
2539;DHT22;1280;49.760;9.664;2024-01-30T11:50:38;4.90;81.20
2539;DHT22;1280;49.760;9.664;2024-01-30T11:53:07;5.00;81.20
2539;DHT22;1280;49.760;9.664;2024-01-30T11:55:38;5.00;81.30
2539;DHT22;1280;49.760;9.664;2024-01-30T11:58:06;5.00;81.30
2539;DHT22;1280;49.760;9.664;2024-01-30T12:00:35;5.10;81.30
2539;DHT22;1280;49.760;9.664;2024-01-30T12:03:04;5.10;81.30
2539;DHT22;1280;49.760;9.664;2024-01-30T12:05:34;5.10;81.40
2539;DHT22;1280;49.760;9.664;2024-01-30T12:08:03;5.20;81.40
2539;DHT22;1280;49.760;9.664;2024-01-30T12:10:32;5.20;81.40
2539;DHT22;1280;49.760;9.664;2024-01-30T12:13:01;5.20;81.50
2539;DHT22;1280;49.760;9.664;2024-01-30T12:15:30;5.20;81.60
2539;DHT22;1280;49.760;9.664;2024-01-30T12:18:04;5.30;81.60
2539;DHT22;1280;49.760;9.664;2024-01-30T12:20:33;5.30;81.70
2539;DHT22;1280;49.760;9.664;2024-01-30T12:23:01;5.40;81.70
2539;DHT22;1280;49.760;9.664;2024-01-30T12:25:29;5.40;81.80
2539;DHT22;1280;49.760;9.664;2024-01-30T12:27:58;5.50;81.80
2539;DHT22;1280;49.760;9.664;2024-01-30T12:30:27;5.50;81.80
2539;DHT22;1280;49.760;9.664;2024-01-30T12:32:56;5.50;81.80
2539;DHT22;1280;49.760;9.664;2024-01-30T12:35:25;5.50;81.90
2539;DHT22;1280;49.760;9.664;2024-01-30T12:37:58;5.60;81.90
2539;DHT22;1280;49.760;9.664;2024-01-30T12:40:26;5.60;81.90
2539;DHT22;1280;49.760;9.664;2024-01-30T12:42:54;5.60;82.00
2539;DHT22;1280;49.760;9.664;2024-01-30T12:45:22;5.70;82.00
2539;DHT22;1280;49.760;9.664;2024-01-30T12:47:52;5.70;82.00
2539;DHT22;1280;49.760;9.664;2024-01-30T12:50:20;5.70;81.90
2539;DHT22;1280;49.760;9.664;2024-01-30T12:52:49;5.70;81.90
2539;DHT22;1280;49.760;9.664;2024-01-30T12:55:17;5.80;82.00
2539;DHT22;1280;49.760;9.664;2024-01-30T12:57:45;5.80;81.90
2539;DHT22;1280;49.760;9.664;2024-01-30T13:00:13;5.80;82.00
2539;DHT22;1280;49.760;9.664;2024-01-30T13:02:44;5.80;82.00
2539;DHT22;1280;49.760;9.664;2024-01-30T13:05:13;5.80;82.00
2539;DHT22;1280;49.760;9.664;2024-01-30T13:07:41;5.80;82.20
2539;DHT22;1280;49.760;9.664;2024-01-30T13:10:09;5.90;82.20
2539;DHT22;1280;49.760;9.664;2024-01-30T13:12:38;5.90;82.10
2539;DHT22;1280;49.760;9.664;2024-01-30T13:15:06;6.00;82.10
2539;DHT22;1280;49.760;9.664;2024-01-30T13:17:35;6.00;82.10
2539;DHT22;1280;49.760;9.664;2024-01-30T13:20:04;6.00;82.10
2539;DHT22;1280;49.760;9.664;2024-01-30T13:22:39;6.00;82.10
2539;DHT22;1280;49.760;9.664;2024-01-30T13:25:07;6.00;82.20
2539;DHT22;1280;49.760;9.664;2024-01-30T13:27:37;6.10;82.20
2539;DHT22;1280;49.760;9.664;2024-01-30T13:30:07;6.00;82.20
2539;DHT22;1280;49.760;9.664;2024-01-30T13:32:36;6.10;82.30
2539;DHT22;1280;49.760;9.664;2024-01-30T13:35:04;6.10;82.30
2539;DHT22;1280;49.760;9.664;2024-01-30T13:37:34;6.20;82.30
2539;DHT22;1280;49.760;9.664;2024-01-30T13:40:05;6.20;82.30
2539;DHT22;1280;49.760;9.664;2024-01-30T13:42:37;6.20;82.30
2539;DHT22;1280;49.760;9.664;2024-01-30T13:45:06;6.20;82.30
2539;DHT22;1280;49.760;9.664;2024-01-30T13:47:36;6.20;82.40
2539;DHT22;1280;49.760;9.664;2024-01-30T13:50:05;6.30;82.40
2539;DHT22;1280;49.760;9.664;2024-01-30T13:52:34;6.30;82.50
2539;DHT22;1280;49.760;9.664;2024-01-30T13:55:12;6.40;82.30
2539;DHT22;1280;49.760;9.664;2024-01-30T13:57:40;6.40;82.30
2539;DHT22;1280;49.760;9.664;2024-01-30T14:00:09;6.40;82.20
2539;DHT22;1280;49.760;9.664;2024-01-30T14:02:41;6.40;82.20
2539;DHT22;1280;49.760;9.664;2024-01-30T14:05:09;6.40;82.20
2539;DHT22;1280;49.760;9.664;2024-01-30T14:07:37;6.40;82.10
2539;DHT22;1280;49.760;9.664;2024-01-30T14:10:07;6.40;82.10
2539;DHT22;1280;49.760;9.664;2024-01-30T14:12:41;6.30;82.10
2539;DHT22;1280;49.760;9.664;2024-01-30T14:15:10;6.40;82.10
2539;DHT22;1280;49.760;9.664;2024-01-30T14:17:53;6.30;82.10
2539;DHT22;1280;49.760;9.664;2024-01-30T14:20:22;6.30;82.10
2539;DHT22;1280;49.760;9.664;2024-01-30T14:22:50;6.30;82.10
2539;DHT22;1280;49.760;9.664;2024-01-30T14:25:20;6.30;82.30
2539;DHT22;1280;49.760;9.664;2024-01-30T14:27:50;6.30;82.30
2539;DHT22;1280;49.760;9.664;2024-01-30T14:30:19;6.30;82.10
2539;DHT22;1280;49.760;9.664;2024-01-30T14:32:47;6.30;82.10
2539;DHT22;1280;49.760;9.664;2024-01-30T14:35:16;6.30;82.10
2539;DHT22;1280;49.760;9.664;2024-01-30T14:37:44;6.30;82.30
2539;DHT22;1280;49.760;9.664;2024-01-30T14:40:12;6.30;82.30
2539;DHT22;1280;49.760;9.664;2024-01-30T14:42:40;6.30;82.30
2539;DHT22;1280;49.760;9.664;2024-01-30T14:45:10;6.30;82.30
2539;DHT22;1280;49.760;9.664;2024-01-30T14:47:38;6.30;82.30
2539;DHT22;1280;49.760;9.664;2024-01-30T14:50:08;6.30;82.30
2539;DHT22;1280;49.760;9.664;2024-01-30T14:52:37;6.30;82.30
2539;DHT22;1280;49.760;9.664;2024-01-30T14:55:07;6.30;82.30
2539;DHT22;1280;49.760;9.664;2024-01-30T14:57:36;6.30;82.30
2539;DHT22;1280;49.760;9.664;2024-01-30T15:00:07;6.30;82.30
2539;DHT22;1280;49.760;9.664;2024-01-30T15:02:37;6.30;82.30
2539;DHT22;1280;49.760;9.664;2024-01-30T15:05:05;6.30;82.40
2539;DHT22;1280;49.760;9.664;2024-01-30T15:07:34;6.30;82.40
2539;DHT22;1280;49.760;9.664;2024-01-30T15:10:07;6.30;82.40
2539;DHT22;1280;49.760;9.664;2024-01-30T15:12:36;6.30;82.40
2539;DHT22;1280;49.760;9.664;2024-01-30T15:15:06;6.30;82.40
2539;DHT22;1280;49.760;9.664;2024-01-30T15:17:34;6.20;82.40
2539;DHT22;1280;49.760;9.664;2024-01-30T15:20:04;6.20;82.40
2539;DHT22;1280;49.760;9.664;2024-01-30T15:22:33;6.20;82.40
2539;DHT22;1280;49.760;9.664;2024-01-30T15:25:01;6.20;82.40
2539;DHT22;1280;49.760;9.664;2024-01-30T15:27:30;6.20;82.40
2539;DHT22;1280;49.760;9.664;2024-01-30T15:29:58;6.20;82.40
2539;DHT22;1280;49.760;9.664;2024-01-30T15:32:26;6.20;82.40
2539;DHT22;1280;49.760;9.664;2024-01-30T15:34:57;6.20;82.30
2539;DHT22;1280;49.760;9.664;2024-01-30T15:37:29;6.20;82.50
2539;DHT22;1280;49.760;9.664;2024-01-30T15:39:57;6.20;82.70
2539;DHT22;1280;49.760;9.664;2024-01-30T15:42:25;6.30;82.90
2539;DHT22;1280;49.760;9.664;2024-01-30T15:44:54;6.40;82.90
2539;DHT22;1280;49.760;9.664;2024-01-30T15:47:22;6.50;82.80
2539;DHT22;1280;49.760;9.664;2024-01-30T15:49:51;6.60;82.80
2539;DHT22;1280;49.760;9.664;2024-01-30T15:52:20;6.60;82.80
2539;DHT22;1280;49.760;9.664;2024-01-30T15:54:49;6.70;82.70
2539;DHT22;1280;49.760;9.664;2024-01-30T15:57:17;6.70;82.50
2539;DHT22;1280;49.760;9.664;2024-01-30T15:59:45;6.70;82.50
2539;DHT22;1280;49.760;9.664;2024-01-30T16:02:14;6.70;82.50
2539;DHT22;1280;49.760;9.664;2024-01-30T16:04:42;6.80;82.50
2539;DHT22;1280;49.760;9.664;2024-01-30T16:07:10;6.70;82.40
2539;DHT22;1280;49.760;9.664;2024-01-30T16:09:38;6.80;82.40
2539;DHT22;1280;49.760;9.664;2024-01-30T16:12:08;6.80;82.40
2539;DHT22;1280;49.760;9.664;2024-01-30T16:14:36;6.80;82.30
2539;DHT22;1280;49.760;9.664;2024-01-30T16:17:04;6.70;82.20
2539;DHT22;1280;49.760;9.664;2024-01-30T16:19:32;6.70;82.20
2539;DHT22;1280;49.760;9.664;2024-01-30T16:22:00;6.70;82.20
2539;DHT22;1280;49.760;9.664;2024-01-30T16:24:29;6.70;82.30
2539;DHT22;1280;49.760;9.664;2024-01-30T16:26:57;6.70;82.20
2539;DHT22;1280;49.760;9.664;2024-01-30T16:29:27;6.70;82.20